Time;durP1;ratioP1;P1;durP2;ratioP2;P2;SDS_P1;SDS_P2;PMS_P1;PMS_P2;Temp;Humidity;BMP_temperature;BMP_pressure;BME280_temperature;BME280_humidity;BME280_pressure;Samples;Min_cycle;Max_cycle;Signal;HPM_P1;HPM_P2
2022/01/24 00:01:39;;;;;;;9.48;7.15;;;;;;;10.52;56.61;103637.69;5035092;28;20056;-72
2022/01/24 00:04:07;;;;;;;9.60;7.70;;;;;;;10.57;56.93;103640.72;5033409;28;20037;-74
2022/01/24 00:06:33;;;;;;;9.05;7.40;;;;;;;10.63;56.34;103634.72;5027005;28;20041;-73
2022/01/24 00:08:59;;;;;;;10.38;8.13;;;;;;;10.49;57.03;103632.63;5030336;28;20489;-75
2022/01/24 00:11:36;;;;;;;9.65;6.75;;;;;;;10.56;56.73;103627.44;5033666;28;20116;-74
2022/01/24 00:14:40;;;;;;;8.20;6.50;;;;;;;10.36;57.18;103636.69;5027520;28;20048;-74
2022/01/24 00:27:21;;;;;;;9.30;6.47;;;;;;;10.56;57.04;103627.44;5018669;28;20126;-73
2022/01/24 00:29:46;;;;;;;9.50;6.93;;;;;;;10.62;57.03;103629.50;5030540;28;20112;-74
2022/01/24 00:32:12;;;;;;;8.60;5.95;;;;;;;10.60;57.42;103626.13;5034793;28;20116;-74
2022/01/24 00:34:38;;;;;;;7.80;6.15;;;;;;;10.20;57.23;103628.53;5034962;28;20046;-74
2022/01/24 00:37:03;;;;;;;9.93;6.20;;;;;;;10.50;56.42;103628.06;5034775;28;20405;-74
2022/01/24 00:39:29;;;;;;;9.75;7.05;;;;;;;10.56;56.83;103635.53;5035296;28;20123;-74
2022/01/24 00:42:15;;;;;;;9.07;6.68;;;;;;;10.61;56.88;103630.53;5034674;28;20033;-73
2022/01/24 00:44:48;;;;;;;7.45;6.35;;;;;;;10.54;56.79;103624.06;5035480;28;20318;-74
2022/01/24 00:47:20;;;;;;;11.45;7.57;;;;;;;10.36;57.16;103623.25;5034817;28;20067;-74
2022/01/24 00:55:14;;;;;;;9.20;7.05;;;;;;;10.54;57.29;103610.63;5034621;28;20072;-74
2022/01/24 00:57:39;;;;;;;9.88;7.00;;;;;;;10.39;56.54;103615.75;5034572;28;20034;-74
2022/01/24 01:00:05;;;;;;;10.43;7.07;;;;;;;10.45;56.44;103619.66;5034505;28;20042;-74
2022/01/24 01:02:30;;;;;;;10.10;6.70;;;;;;;10.52;56.45;103616.19;5034894;28;20084;-73
2022/01/24 01:05:08;;;;;;;7.82;6.28;;;;;;;10.52;57.44;103616.19;5016038;28;20030;-73
2022/01/24 01:07:41;;;;;;;9.50;6.88;;;;;;;10.54;58.06;103618.69;5034418;28;20041;-73
2022/01/24 01:18:21;;;;;;;8.90;7.28;;;;;;;10.57;58.61;103610.34;5034496;28;20558;-74
2022/01/24 01:23:29;;;;;;;8.93;7.05;;;;;;;10.67;58.69;103608.38;5034367;28;20033;-72
2022/01/24 01:25:55;;;;;;;9.27;7.35;;;;;;;10.67;58.77;103603.00;5027978;28;20083;-73
2022/01/24 01:28:22;;;;;;;8.85;7.05;;;;;;;10.66;58.47;103609.38;5033809;28;20489;-74
2022/01/24 01:30:52;;;;;;;12.60;8.38;;;;;;;10.59;58.38;103603.78;5033997;28;20030;-74
2022/01/24 01:33:33;;;;;;;13.30;8.18;;;;;;;10.66;58.02;103600.47;5033866;28;20511;-73
2022/01/24 01:36:15;;;;;;;13.52;8.55;;;;;;;10.61;58.30;103599.09;5034190;28;20094;-73
2022/01/24 01:52:25;;;;;;;12.20;9.10;;;;;;;10.65;58.66;103590.72;5033602;28;20041;-73
2022/01/24 01:57:37;;;;;;;11.27;8.38;;;;;;;10.65;58.95;103591.56;5033200;28;20048;-73
2022/01/24 02:00:05;;;;;;;13.50;9.05;;;;;;;10.67;58.82;103588.72;5033304;28;20489;-74
2022/01/24 02:02:31;;;;;;;11.88;9.05;;;;;;;10.64;58.79;103584.50;5033641;28;20040;-75
2022/01/24 02:04:56;;;;;;;11.80;8.75;;;;;;;10.63;58.63;103579.28;5033003;28;20116;-73
2022/01/24 02:07:22;;;;;;;11.80;8.85;;;;;;;10.66;59.22;103581.63;5014940;28;20408;-73
2022/01/24 02:09:47;;;;;;;11.35;9.00;;;;;;;10.60;59.36;103583.97;5033082;28;20044;-73
2022/01/24 02:12:14;;;;;;;10.77;8.70;;;;;;;10.60;59.04;103580.44;5033023;28;20026;-73
2022/01/24 02:14:47;;;;;;;13.82;10.23;;;;;;;10.58;59.14;103577.06;5032817;28;20389;-73
2022/01/24 02:17:19;;;;;;;13.77;9.55;;;;;;;10.55;59.61;103570.13;5032941;28;20385;-73
2022/01/24 02:25:06;;;;;;;12.77;9.60;;;;;;;10.54;59.09;103581.06;5032597;28;20041;-73
2022/01/24 02:27:42;;;;;;;15.02;10.95;;;;;;;10.56;58.98;103571.84;5014737;28;20037;-72
2022/01/24 02:33:00;;;;;;;18.08;10.68;;;;;;;10.54;59.21;103565.78;5010189;28;20189;-74
2022/01/24 02:35:25;;;;;;;10.95;9.05;;;;;;;10.54;59.12;103563.09;5010936;28;20129;-73
2022/01/24 02:37:51;;;;;;;13.70;9.95;;;;;;;10.49;60.20;103568.13;4994588;28;20038;-73
2022/01/24 02:40:19;;;;;;;13.57;9.57;;;;;;;10.49;60.00;103551.97;4990717;28;20042;-72
2022/01/24 02:51:32;;;;;;;13.45;10.20;;;;;;;10.54;59.87;103552.34;4951625;28;20138;-72
2022/01/24 02:53:58;;;;;;;15.38;9.75;;;;;;;10.45;60.21;103549.75;4935502;28;20506;-73
2022/01/24 02:56:24;;;;;;;15.07;9.68;;;;;;;10.43;60.42;103549.06;4951902;29;20039;-74
2022/01/24 02:58:50;;;;;;;13.20;9.95;;;;;;;10.46;60.26;103554.13;4951561;28;20533;-73
2022/01/24 03:01:15;;;;;;;13.35;10.05;;;;;;;10.45;60.37;103561.38;4951500;28;20067;-73
2022/01/24 03:03:43;;;;;;;15.82;10.85;;;;;;;10.43;60.39;103551.75;4964199;28;20486;-74
2022/01/24 03:06:08;;;;;;;25.17;12.70;;;;;;;10.44;59.89;103553.44;4973629;28;20046;-75
2022/01/24 03:08:37;;;;;;;18.17;12.75;;;;;;;10.49;60.08;103546.59;4990492;28;20053;-74
2022/01/24 03:11:02;;;;;;;14.15;9.73;;;;;;;10.06;59.89;103548.44;5010089;28;20042;-75
2022/01/24 03:15:56;;;;;;;22.55;13.63;;;;;;;10.33;59.21;103554.56;5009759;28;20408;-74
2022/01/24 03:18:22;;;;;;;22.60;14.10;;;;;;;10.30;59.16;103543.28;5009779;28;20088;-73
2022/01/24 03:20:48;;;;;;;17.38;12.10;;;;;;;10.38;59.82;103544.16;5009970;28;20041;-73
2022/01/24 03:23:16;;;;;;;20.00;12.38;;;;;;;10.40;60.48;103546.69;5009602;28;20045;-73
2022/01/24 03:25:42;;;;;;;18.83;13.23;;;;;;;10.41;60.19;103540.31;5009272;28;20431;-74
2022/01/24 03:28:07;;;;;;;21.67;12.23;;;;;;;10.43;60.37;103543.69;5012434;28;20046;-72
2022/01/24 03:30:34;;;;;;;19.98;13.50;;;;;;;10.44;60.46;103551.59;5011983;28;20486;-73
2022/01/24 03:32:59;;;;;;;25.90;14.27;;;;;;;10.41;60.23;103548.38;5011616;28;20064;-74
2022/01/24 03:35:25;;;;;;;24.77;15.52;;;;;;;10.44;60.13;103538.16;5008835;28;20041;-74
2022/01/24 03:37:50;;;;;;;23.92;14.75;;;;;;;10.37;59.78;103544.31;5031574;28;20044;-75
2022/01/24 03:40:16;;;;;;;29.83;17.00;;;;;;;10.41;60.19;103545.69;5031595;28;20038;-72
2022/01/24 03:42:41;;;;;;;25.35;16.17;;;;;;;10.45;60.15;103539.00;5031614;28;20040;-72
2022/01/24 03:45:09;;;;;;;28.30;16.90;;;;;;;10.39;60.28;103539.63;5031697;28;20521;-73
2022/01/24 03:50:16;;;;;;;30.20;18.02;;;;;;;10.37;59.70;103541.63;5031578;28;20037;-73
2022/01/24 03:52:46;;;;;;;29.13;16.60;;;;;;;10.39;60.08;103550.38;5031573;28;20069;-73
2022/01/24 03:55:12;;;;;;;23.58;14.85;;;;;;;10.43;59.76;103554.44;5031479;28;20125;-73
2022/01/24 03:57:38;;;;;;;25.40;15.57;;;;;;;10.41;59.93;103551.06;5031325;28;20041;-73
2022/01/24 04:00:06;;;;;;;27.77;17.60;;;;;;;10.45;59.60;103544.38;5031646;28;20041;-75
2022/01/24 04:02:32;;;;;;;28.48;17.10;;;;;;;10.46;59.62;103546.06;5032001;28;20462;-73
2022/01/24 04:04:58;;;;;;;27.05;16.45;;;;;;;10.41;59.88;103537.63;5031228;28;20033;-73
2022/01/24 04:07:24;;;;;;;23.38;15.15;;;;;;;10.44;59.78;103535.47;5027893;28;20084;-75
2022/01/24 04:09:50;;;;;;;28.52;17.00;;;;;;;10.51;59.65;103543.75;5038278;28;20033;-74
2022/01/24 04:12:16;;;;;;;28.50;16.52;;;;;;;10.45;59.85;103544.38;5025817;28;20481;-74
2022/01/24 04:22:08;;;;;;;28.00;15.35;;;;;;;10.57;59.91;103546.63;5011811;28;20389;-74
2022/01/24 04:24:34;;;;;;;30.27;17.15;;;;;;;10.57;59.02;103545.81;5020374;28;20033;-73
2022/01/24 04:26:59;;;;;;;28.02;18.00;;;;;;;10.60;59.24;103548.16;5031248;28;20029;-74
2022/01/24 04:29:25;;;;;;;31.27;19.15;;;;;;;10.58;58.93;103540.25;5031571;28;20040;-74
2022/01/24 04:31:50;;;;;;;28.95;17.70;;;;;;;10.57;59.34;103543.13;5031131;28;20099;-74
2022/01/24 04:34:15;;;;;;;29.08;17.45;;;;;;;10.50;59.28;103544.72;5031207;28;20037;-74
2022/01/24 04:36:41;;;;;;;28.92;17.77;;;;;;;10.52;59.87;103537.34;5031091;28;20041;-74
2022/01/24 04:39:07;;;;;;;27.35;18.65;;;;;;;10.61;58.72;103536.41;5034744;28;20136;-74
2022/01/24 04:41:37;;;;;;;29.38;17.83;;;;;;;10.61;58.95;103536.41;5035208;28;20048;-72
2022/01/24 04:44:31;;;;;;;30.77;19.13;;;;;;;10.59;58.71;103531.19;5034747;28;20088;-72
2022/01/24 04:52:31;;;;;;;43.13;24.55;;;;;;;10.53;58.08;103528.31;5034860;28;20076;-73
2022/01/24 04:54:56;;;;;;;40.10;25.02;;;;;;;10.45;57.82;103534.47;5034615;28;20034;-72
2022/01/24 04:57:24;;;;;;;43.60;25.83;;;;;;;10.40;57.34;103531.41;5034495;28;20036;-74
2022/01/24 04:59:51;;;;;;;45.88;26.02;;;;;;;10.49;57.41;103529.63;5035213;28;20029;-73
2022/01/24 05:02:19;;;;;;;45.67;26.05;;;;;;;10.48;57.61;103535.97;5032079;28;20049;-73
2022/01/24 05:04:45;;;;;;;40.28;26.42;;;;;;;10.43;57.29;103535.63;5034166;28;20389;-74
2022/01/24 05:07:11;;;;;;;45.83;26.75;;;;;;;10.43;57.76;103533.78;5034198;28;20036;-73
2022/01/24 05:09:42;;;;;;;47.15;28.10;;;;;;;10.49;57.44;103537.69;5033982;28;20029;-75
2022/01/24 05:12:28;;;;;;;44.50;27.55;;;;;;;10.22;57.59;103530.59;5034282;28;20057;-73
2022/01/24 05:25:51;;;;;;;47.67;27.02;;;;;;;10.44;57.16;103532.78;5034025;28;20040;-74
2022/01/24 05:28:18;;;;;;;45.38;26.63;;;;;;;10.50;57.17;103532.16;5034000;28;20124;-74
2022/01/24 05:30:43;;;;;;;52.45;28.65;;;;;;;10.44;57.64;103530.09;5033627;28;20052;-74
2022/01/24 05:33:09;;;;;;;44.47;28.60;;;;;;;10.17;56.35;103532.94;5024857;28;20476;-74
2022/01/24 05:35:34;;;;;;;48.95;30.50;;;;;;;10.22;56.76;103538.66;5015014;28;20132;-74
2022/01/24 05:37:59;;;;;;;46.42;28.85;;;;;;;10.30;56.67;103533.34;5014121;28;20521;-74
2022/01/24 05:40:25;;;;;;;49.17;30.52;;;;;;;10.36;56.72;103537.25;5014019;28;20045;-75
2022/01/24 05:42:51;;;;;;;50.72;31.50;;;;;;;10.34;57.25;103539.25;5013642;28;20038;-73
2022/01/24 05:45:17;;;;;;;50.15;30.50;;;;;;;10.32;57.98;103528.66;5013696;28;20461;-73
2022/01/24 05:47:43;;;;;;;53.80;32.22;;;;;;;9.93;57.81;103526.47;5014275;28;20042;-73
2022/01/24 05:50:09;;;;;;;48.05;31.50;;;;;;;10.17;57.55;103526.72;5012820;28;20049;-73
2022/01/24 05:52:34;;;;;;;49.08;30.67;;;;;;;9.96;57.45;103528.88;5013935;28;20570;-73
2022/01/24 05:55:02;;;;;;;52.00;28.55;;;;;;;10.19;55.95;103525.56;5013755;28;20030;-76
2022/01/24 05:57:28;;;;;;;50.50;28.40;;;;;;;10.15;56.00;103531.41;5013659;28;20505;-74
2022/01/24 05:59:54;;;;;;;46.53;29.10;;;;;;;9.92;56.73;103525.66;5014023;28;20025;-74
2022/01/24 06:02:19;;;;;;;49.78;29.20;;;;;;;9.95;57.18;103535.22;5013459;28;20045;-73
2022/01/24 06:04:45;;;;;;;46.65;29.52;;;;;;;10.15;56.81;103534.94;5013513;28;20034;-75
2022/01/24 06:07:10;;;;;;;44.58;27.55;;;;;;;10.17;55.67;103534.75;5013534;28;20124;-72
2022/01/24 06:09:36;;;;;;;49.40;29.48;;;;;;;10.00;56.49;103541.84;4995664;28;20030;-74
2022/01/24 06:12:02;;;;;;;50.88;31.27;;;;;;;10.00;56.61;103528.41;5013291;28;20440;-75
2022/01/24 06:14:27;;;;;;;54.55;30.67;;;;;;;10.16;56.41;103541.16;5013662;28;20108;-75
2022/01/24 06:16:53;;;;;;;47.38;30.65;;;;;;;10.16;57.14;103538.47;5013182;28;20504;-74
2022/01/24 06:19:18;;;;;;;52.33;30.73;;;;;;;10.18;57.97;103539.16;5013197;28;20117;-74
2022/01/24 06:21:45;;;;;;;49.00;30.75;;;;;;;10.19;57.42;103551.56;5013195;28;20409;-74
2022/01/24 06:24:11;;;;;;;50.70;29.55;;;;;;;10.47;57.03;103537.00;5013356;28;20047;-74
2022/01/24 06:26:37;;;;;;;48.50;29.30;;;;;;;10.62;55.83;103538.09;5013815;28;20504;-74
2022/01/24 06:29:03;;;;;;;47.63;28.73;;;;;;;10.58;56.73;103534.88;5013040;28;20045;-73
2022/01/24 06:31:28;;;;;;;52.50;30.40;;;;;;;10.68;55.91;103539.28;5013282;28;20052;-74
2022/01/24 06:33:54;;;;;;;49.72;30.77;;;;;;;10.67;56.75;103537.63;5026328;28;20057;-75
2022/01/24 06:36:19;;;;;;;55.67;31.60;;;;;;;10.32;57.61;103538.56;5014846;28;20034;-75
2022/01/24 06:38:45;;;;;;;53.33;31.00;;;;;;;10.27;57.67;103547.13;5033452;28;20473;-75
2022/01/24 06:41:10;;;;;;;54.33;31.60;;;;;;;10.45;56.97;103545.22;5032412;28;20086;-75
2022/01/24 06:43:36;;;;;;;50.78;31.13;;;;;;;10.28;57.87;103542.59;5029624;28;20124;-73
2022/01/24 06:46:21;;;;;;;53.63;31.23;;;;;;;10.44;57.27;103542.69;5032327;28;20133;-73
2022/01/24 06:48:47;;;;;;;51.92;30.38;;;;;;;10.32;57.20;103546.63;5031531;28;20033;-74
2022/01/24 06:51:12;;;;;;;48.42;30.70;;;;;;;10.50;56.62;103553.66;5032049;28;20033;-74
2022/01/24 06:53:38;;;;;;;47.85;29.00;;;;;;;10.31;56.99;103555.69;5029897;28;20370;-74
2022/01/24 06:56:07;;;;;;;51.40;31.63;;;;;;;10.13;58.86;103560.25;5032127;28;20381;-74
2022/01/24 06:58:33;;;;;;;51.25;30.83;;;;;;;10.48;57.30;103561.03;5032044;28;20029;-75
2022/01/24 07:01:17;;;;;;;55.63;32.60;;;;;;;10.50;55.86;103560.88;5013871;28;20044;-76
2022/01/24 07:03:43;;;;;;;51.30;30.90;;;;;;;10.50;55.25;103556.34;5031723;28;20111;-75
2022/01/24 07:06:08;;;;;;;49.45;30.83;;;;;;;10.35;56.25;103571.38;5032136;28;20116;-77
2022/01/24 07:08:33;;;;;;;48.22;30.60;;;;;;;9.75;56.24;103556.03;5029595;28;20537;-75
2022/01/24 07:10:59;;;;;;;53.45;33.67;;;;;;;10.32;55.68;103568.97;5030459;28;20045;-75
2022/01/24 07:13:24;;;;;;;55.53;34.15;;;;;;;10.49;55.17;103569.94;5029338;28;20025;-76
2022/01/24 07:15:54;;;;;;;56.03;34.28;;;;;;;10.63;55.68;103565.81;5028163;28;20112;-75
2022/01/24 07:20:48;;;;;;;55.85;33.65;;;;;;;10.28;56.93;103575.66;5029148;28;20492;-74
2022/01/24 07:23:13;;;;;;;58.55;34.80;;;;;;;10.21;57.42;103580.00;5012025;28;20045;-74
2022/01/24 07:25:38;;;;;;;54.03;33.88;;;;;;;10.56;56.10;103579.91;5029280;28;20517;-74
2022/01/24 07:28:04;;;;;;;58.25;35.80;;;;;;;10.52;56.21;103573.16;5029855;28;20056;-74
2022/01/24 07:30:29;;;;;;;56.20;34.25;;;;;;;10.59;55.76;103570.69;5029184;28;20029;-74
2022/01/24 07:32:54;;;;;;;63.28;35.13;;;;;;;10.55;57.00;103572.00;5027174;28;20141;-76
2022/01/24 07:35:20;;;;;;;59.97;36.00;;;;;;;10.33;56.57;103570.69;5017925;28;20034;-75
2022/01/24 07:37:46;;;;;;;61.53;36.30;;;;;;;10.58;56.21;103577.91;5013791;28;20129;-74
2022/01/24 07:40:13;;;;;;;56.78;35.80;;;;;;;10.32;57.30;103570.81;5015269;28;20042;-75
2022/01/24 07:45:37;;;;;;;56.38;35.03;;;;;;;10.37;57.56;103571.19;4949431;28;20047;-74
2022/01/24 07:48:05;;;;;;;60.75;35.67;;;;;;;10.50;57.32;103575.16;4947199;28;20122;-74
2022/01/24 07:50:31;;;;;;;65.78;38.20;;;;;;;10.35;57.22;103576.75;4944259;29;20119;-73
2022/01/24 07:52:59;;;;;;;58.88;35.50;;;;;;;10.43;56.94;103578.63;4945330;29;20043;-73
2022/01/24 07:55:25;;;;;;;57.28;37.47;;;;;;;10.25;56.92;103572.44;4944337;28;20039;-73
2022/01/24 07:57:50;;;;;;;60.78;35.58;;;;;;;10.48;56.84;103573.63;4929187;29;20041;-73
2022/01/24 08:00:16;;;;;;;58.95;35.25;;;;;;;10.53;56.37;103569.44;4941988;28;20043;-73
2022/01/24 08:02:41;;;;;;;47.55;30.02;;;;;;;10.29;55.30;103568.44;4942752;28;20240;-74
2022/01/24 08:05:08;;;;;;;46.35;29.45;;;;;;;10.42;55.26;103568.88;4938600;28;20040;-76
2022/01/24 08:07:34;;;;;;;52.33;30.83;;;;;;;9.89;55.98;103570.75;4936660;29;20055;-73
2022/01/24 08:09:59;;;;;;;43.47;27.25;;;;;;;9.56;56.18;103575.81;4946085;28;20094;-74
2022/01/24 08:12:25;;;;;;;40.17;26.08;;;;;;;9.98;54.94;103568.00;4941989;28;20110;-73
2022/01/24 08:14:50;;;;;;;39.92;26.60;;;;;;;10.28;54.06;103564.91;4943792;28;20039;-74
2022/01/24 08:17:16;;;;;;;43.58;27.48;;;;;;;10.52;54.02;103573.16;4947550;28;20416;-73
2022/01/24 08:19:41;;;;;;;41.60;28.25;;;;;;;10.31;55.27;103574.50;4944309;29;20039;-76
2022/01/24 08:22:06;;;;;;;51.28;28.60;;;;;;;10.33;55.18;103576.06;5011032;28;20562;-75
2022/01/24 08:24:32;;;;;;;46.58;28.50;;;;;;;10.54;54.81;103573.00;5017734;28;20266;-75
2022/01/24 08:26:58;;;;;;;42.17;27.35;;;;;;;10.62;54.80;103578.44;5020454;28;20454;-74
2022/01/24 08:29:23;;;;;;;41.65;26.90;;;;;;;10.44;55.10;103580.31;5023704;28;20113;-75
2022/01/24 08:31:49;;;;;;;41.60;27.73;;;;;;;10.53;54.63;103582.06;5018586;28;20061;-76
2022/01/24 08:34:14;;;;;;;39.10;25.13;;;;;;;10.35;55.10;103584.81;5028654;28;20497;-74
2022/01/24 08:36:39;;;;;;;41.17;23.85;;;;;;;10.54;54.74;103581.06;5029947;28;20636;-75
2022/01/24 08:39:07;;;;;;;35.67;22.42;;;;;;;10.31;54.89;103579.88;5028928;28;20726;-78
2022/01/24 08:45:41;;;;;;;31.42;21.23;;;;;;;10.51;55.06;103594.84;5037986;28;20570;-74
2022/01/24 08:47:07;;;;;;;29.38;20.52;;;;;;;10.37;55.00;103590.88;5027077;28;20609;-74
2022/01/24 08:49:33;;;;;;;33.40;19.80;;;;;;;10.35;54.72;103595.56;5028786;28;20029;-76
2022/01/24 08:51:59;;;;;;;40.10;20.60;;;;;;;10.59;54.25;103597.56;5029187;28;20041;-74
2022/01/24 08:54:26;;;;;;;31.70;19.58;;;;;;;10.74;54.39;103597.81;5029767;28;20073;-75
2022/01/24 08:56:51;;;;;;;30.63;19.90;;;;;;;10.57;54.13;103597.72;5031105;28;20022;-74
2022/01/24 08:59:17;;;;;;;24.88;17.65;;;;;;;10.51;53.91;103597.53;5022873;28;20034;-74
2022/01/24 09:01:43;;;;;;;23.50;16.13;;;;;;;10.50;53.48;103598.50;5034154;28;20032;-74
2022/01/24 09:04:09;;;;;;;22.70;15.98;;;;;;;10.48;53.70;103604.03;5028754;28;20870;-76
2022/01/24 09:06:34;;;;;;;19.35;15.02;;;;;;;10.39;53.53;103601.47;5037185;28;20044;-75
2022/01/24 09:09:04;;;;;;;23.08;15.00;;;;;;;10.46;53.41;103607.88;5010225;28;20048;-76
2022/01/24 09:11:33;;;;;;;22.17;15.70;;;;;;;10.12;54.13;103610.47;5031534;28;20043;-77
2022/01/24 09:13:58;;;;;;;21.30;15.65;;;;;;;10.12;54.25;103615.00;5026466;28;20029;-74
2022/01/24 09:16:24;;;;;;;19.98;15.35;;;;;;;10.37;53.28;103609.69;5036112;28;20424;-75
2022/01/24 09:18:50;;;;;;;22.40;16.17;;;;;;;10.24;54.87;103601.16;5030524;28;20386;-74
2022/01/24 09:21:16;;;;;;;23.10;15.95;;;;;;;9.95;54.82;103610.44;5033163;28;20060;-74
2022/01/24 09:23:41;;;;;;;26.50;16.65;;;;;;;10.47;54.04;103607.75;5027457;28;20646;-74
2022/01/24 09:26:07;;;;;;;24.15;16.85;;;;;;;10.58;53.92;103609.31;5027261;28;20095;-75
2022/01/24 09:28:33;;;;;;;21.98;15.10;;;;;;;10.59;53.27;103603.78;5025505;28;20112;-75
2022/01/24 09:31:16;;;;;;;24.15;16.75;;;;;;;10.66;53.65;103612.06;5026766;28;20033;-75
2022/01/24 09:33:42;;;;;;;20.85;15.32;;;;;;;10.63;53.48;103614.22;5025738;28;20088;-75
2022/01/24 09:36:07;;;;;;;22.15;16.05;;;;;;;9.85;55.46;103617.75;5029545;28;20022;-75
2022/01/24 09:38:34;;;;;;;23.80;17.00;;;;;;;10.08;55.98;103610.91;5034204;28;20188;-73
2022/01/24 09:41:03;;;;;;;23.00;17.52;;;;;;;9.76;55.54;103614.13;5020415;28;20048;-74
2022/01/24 09:43:30;;;;;;;20.73;15.38;;;;;;;10.26;54.42;103606.41;5029112;28;20041;-76
2022/01/24 09:45:56;;;;;;;20.55;15.43;;;;;;;10.35;53.70;103600.09;5037548;28;20041;-74
2022/01/24 09:48:22;;;;;;;22.20;15.35;;;;;;;10.29;53.64;103600.72;5034891;28;20061;-75
2022/01/24 09:50:50;;;;;;;22.23;16.83;;;;;;;10.35;54.45;103605.47;5032677;28;20056;-76
2022/01/24 09:53:17;;;;;;;20.80;16.13;;;;;;;10.27;54.09;103603.56;5030484;28;20506;-75
2022/01/24 09:55:43;;;;;;;21.70;16.20;;;;;;;10.38;53.74;103619.41;5021513;28;20063;-75
2022/01/24 09:58:08;;;;;;;23.05;17.85;;;;;;;10.33;54.45;103607.47;5027224;28;20046;-74
2022/01/24 10:00:34;;;;;;;23.88;17.60;;;;;;;10.16;55.52;103611.84;5026205;28;20079;-76
2022/01/24 10:02:59;;;;;;;26.30;18.70;;;;;;;10.42;54.81;103606.50;5034664;28;20029;-76
2022/01/24 10:05:34;;;;;;;24.48;18.92;;;;;;;10.23;54.02;103621.00;5032566;28;20492;-75
2022/01/24 10:08:11;;;;;;;22.42;16.88;;;;;;;10.10;54.48;103619.69;5032348;28;20490;-74
2022/01/24 10:10:57;;;;;;;22.88;18.48;;;;;;;10.09;54.19;103617.97;5028052;28;20026;-75
2022/01/24 10:19:16;;;;;;;17.27;14.25;;;;;;;10.45;52.90;103611.59;5038600;28;19921;-76
2022/01/24 10:21:45;;;;;;;19.08;15.32;;;;;;;10.29;53.60;103614.13;5026140;28;20065;-74
2022/01/24 10:24:28;;;;;;;20.05;15.18;;;;;;;9.91;54.99;103611.72;5026267;28;20045;-74
2022/01/24 10:27:09;;;;;;;18.55;14.85;;;;;;;10.40;53.29;103614.72;5032284;28;20026;-74
2022/01/24 10:29:40;;;;;;;18.70;13.75;;;;;;;10.32;52.62;103608.44;5020933;28;20037;-73
2022/01/24 10:32:06;;;;;;;18.40;15.35;;;;;;;10.42;52.99;103593.06;5028970;28;20370;-75
2022/01/24 10:34:37;;;;;;;23.25;16.92;;;;;;;10.49;52.99;103599.53;5009378;28;20111;-76
2022/01/24 10:37:02;;;;;;;;;;;;;;;10.11;53.75;103599.88;5029157;28;20122;-74
2022/01/24 10:39:53;;;;;;;18.27;14.23;;;;;;;9.96;53.24;103596.03;5026280;28;19921;-76
2022/01/24 10:44:59;;;;;;;23.92;17.02;;;;;;;10.22;53.88;103584.34;5030862;28;20076;-75
2022/01/24 10:47:32;;;;;;;16.70;14.30;;;;;;;10.13;53.67;103587.97;5028021;28;20654;-77
2022/01/24 10:50:03;;;;;;;18.38;14.80;;;;;;;10.29;53.75;103588.13;5013149;28;20039;-74
2022/01/24 10:52:32;;;;;;;20.20;15.80;;;;;;;9.97;54.21;103593.16;5026374;28;20033;-75
2022/01/24 10:55:19;;;;;;;19.83;16.83;;;;;;;10.27;53.59;103583.88;5028120;28;20089;-75
2022/01/24 10:57:51;;;;;;;20.67;17.40;;;;;;;10.55;53.35;103582.75;5036475;28;20366;-77
2022/01/24 11:00:25;;;;;;;19.40;17.10;;;;;;;10.49;53.65;103592.31;5017748;28;20509;-75
2022/01/24 11:02:53;;;;;;;20.88;14.93;;;;;;;10.26;54.11;103582.22;5026936;28;20703;-76
2022/01/24 11:05:36;;;;;;;24.02;16.55;;;;;;;10.48;54.10;103581.69;5029969;28;20037;-76
2022/01/24 11:08:13;;;;;;;18.08;14.73;;;;;;;10.32;53.30;103581.56;5025854;28;20064;-76
2022/01/24 11:10:47;;;;;;;19.30;15.15;;;;;;;10.24;53.21;103578.84;5028569;28;20075;-74
2022/01/24 11:13:14;;;;;;;20.65;15.30;;;;;;;10.14;53.80;103578.09;5025979;28;20067;-76
2022/01/24 11:15:44;;;;;;;20.85;16.85;;;;;;;10.46;53.74;103578.31;5027021;28;20049;-75
2022/01/24 11:18:14;;;;;;;22.33;17.88;;;;;;;10.44;53.77;103583.84;5022026;28;20037;-75
2022/01/24 11:20:44;;;;;;;23.05;18.42;;;;;;;10.34;53.35;103583.09;5030587;28;20099;-74
2022/01/24 11:23:11;;;;;;;27.57;19.23;;;;;;;10.28;53.61;103583.72;5029148;28;20033;-74
2022/01/24 11:25:39;;;;;;;27.02;19.48;;;;;;;10.51;52.68;103584.91;5027478;28;20091;-74
2022/01/24 11:28:06;;;;;;;26.38;19.58;;;;;;;10.65;52.71;103572.75;5027785;28;20037;-76
2022/01/24 11:30:44;;;;;;;25.75;19.73;;;;;;;10.63;52.84;103576.59;5028323;28;20285;-75
2022/01/24 11:33:12;;;;;;;24.88;19.25;;;;;;;10.65;52.98;103569.19;5026421;28;20367;-75
2022/01/24 11:35:44;;;;;;;27.52;20.13;;;;;;;10.75;52.79;103561.88;5039253;28;20037;-75
2022/01/24 11:38:31;;;;;;;23.75;19.95;;;;;;;10.71;53.13;103563.19;5033821;28;20388;-76
2022/01/24 11:40:59;;;;;;;25.90;18.67;;;;;;;10.51;53.22;103555.31;5031413;28;20409;-75
2022/01/24 11:43:36;;;;;;;27.35;17.90;;;;;;;10.53;53.35;103564.06;5025646;28;20028;-75
2022/01/24 11:46:48;;;;;;;22.30;17.65;;;;;;;10.52;52.91;103567.78;5029091;28;20137;-74
2022/01/24 11:49:27;;;;;;;22.50;17.27;;;;;;;10.40;52.69;103560.13;5037359;28;20045;-76
2022/01/24 11:52:11;;;;;;;16.80;14.70;;;;;;;9.75;53.30;103559.56;5032293;28;20107;-76
2022/01/24 11:54:55;;;;;;;19.73;14.75;;;;;;;10.13;53.14;103561.13;5033926;28;20060;-75
2022/01/24 11:57:32;;;;;;;16.50;13.30;;;;;;;9.60;53.84;103560.25;5037343;28;20037;-75
2022/01/24 12:00:07;;;;;;;16.52;13.43;;;;;;;9.60;54.10;103550.38;5039161;28;20052;-76
2022/01/24 12:02:46;;;;;;;18.33;14.15;;;;;;;9.52;54.59;103550.28;5031293;28;20045;-75
2022/01/24 12:05:13;;;;;;;17.88;12.75;;;;;;;9.39;55.19;103549.81;5036628;28;20618;-76
2022/01/24 12:07:50;;;;;;;17.25;12.27;;;;;;;9.09;55.05;103557.31;5039689;28;20037;-75
2022/01/24 12:10:26;;;;;;;14.32;12.55;;;;;;;9.54;53.90;103550.13;5023443;28;20126;-74
2022/01/24 12:13:20;;;;;;;16.55;12.63;;;;;;;9.38;54.52;103564.22;5045097;28;20768;-75
2022/01/24 12:15:48;;;;;;;18.35;13.57;;;;;;;9.55;54.34;103552.66;5038306;28;20030;-75
2022/01/24 12:18:27;;;;;;;20.42;15.50;;;;;;;9.77;54.44;103549.50;5042520;28;20104;-79
2022/01/24 12:21:06;;;;;;;17.65;14.52;;;;;;;10.02;53.54;103547.06;5038630;28;20412;-76
2022/01/24 12:23:47;;;;;;;14.77;12.15;;;;;;;10.02;53.26;103547.06;5036335;28;20041;-77
2022/01/24 12:26:13;;;;;;;20.05;14.88;;;;;;;9.60;54.49;103546.81;5038741;28;20477;-75
2022/01/24 12:28:41;;;;;;;21.15;15.45;;;;;;;9.88;53.40;103547.59;5023909;28;20112;-76
2022/01/24 12:31:22;;;;;;;20.67;15.13;;;;;;;9.70;54.42;103552.97;5044893;28;20052;-75
2022/01/24 12:33:58;;;;;;;19.80;15.32;;;;;;;9.99;53.69;103544.66;5031507;28;20543;-75
2022/01/24 12:36:39;;;;;;;22.75;15.68;;;;;;;10.00;53.39;103541.00;5013164;28;20034;-76
2022/01/24 12:39:25;;;;;;;19.42;15.20;;;;;;;10.25;54.44;103534.81;5010427;28;20034;-76
2022/01/24 12:41:57;;;;;;;20.17;15.85;;;;;;;10.21;53.94;103531.63;5010846;28;20040;-75
2022/01/24 12:47:12;;;;;;;20.48;15.00;;;;;;;9.52;55.11;103541.38;5012285;28;20461;-75
2022/01/24 12:49:39;;;;;;;15.85;13.48;;;;;;;9.87;54.28;103541.38;5011186;28;20030;-76
2022/01/24 12:52:06;;;;;;;16.92;14.68;;;;;;;10.11;54.21;103543.44;5010387;28;20041;-77
2022/01/24 12:54:38;;;;;;;18.77;14.55;;;;;;;9.88;53.90;103535.03;5011377;28;20493;-75
2022/01/24 12:57:07;;;;;;;22.33;14.98;;;;;;;9.30;54.69;103528.38;5012131;28;20034;-76
2022/01/24 12:59:34;;;;;;;21.02;14.27;;;;;;;9.62;55.09;103534.09;5000506;28;20045;-75
2022/01/24 13:02:02;;;;;;;16.70;13.38;;;;;;;9.65;54.74;103528.44;5016600;28;20498;-76
2022/01/24 13:04:33;;;;;;;15.82;11.20;;;;;;;9.77;54.32;103523.69;5011553;28;20373;-76
2022/01/24 13:06:59;;;;;;;12.52;11.23;;;;;;;10.06;53.34;103524.25;5013164;28;20034;-76
2022/01/24 13:09:25;;;;;;;14.95;13.25;;;;;;;9.62;54.48;103526.91;5013271;28;20030;-76